Time;durP1;ratioP1;P1;durP2;ratioP2;P2;SDS_P1;SDS_P2;PMS_P1;PMS_P2;Temp;Humidity;BMP_temperature;BMP_pressure;BME280_temperature;BME280_humidity;BME280_pressure;Samples;Min_cycle;Max_cycle;Signal;HPM_P1;HPM_P2
2023/07/01 00:00:28;;;;;;;1.60;1.50;;;;;;;16.48;73.86;98108.69;4146460;28;20201;-51
2023/07/01 00:02:32;;;;;;;1.70;1.52;;;;;;;16.43;73.97;98110.72;4139460;28;20205;-54
2023/07/01 00:04:35;;;;;;;3.38;1.80;;;;;;;16.39;74.41;98110.47;4144931;28;20228;-54
2023/07/01 00:06:41;;;;;;;1.48;1.13;;;;;;;16.32;74.30;98110.00;4139771;28;20303;-53
2023/07/01 00:08:46;;;;;;;1.65;1.45;;;;;;;16.29;74.38;98107.81;4138234;28;20244;-51
2023/07/01 00:10:50;;;;;;;1.27;1.10;;;;;;;16.25;74.06;98092.97;4140660;28;20202;-52
2023/07/01 00:12:57;;;;;;;1.27;1.20;;;;;;;16.25;74.32;98095.72;4154218;28;20264;-53
2023/07/01 00:15:03;;;;;;;1.70;1.60;;;;;;;16.22;74.39;98093.53;4167999;28;20200;-50
2023/07/01 00:17:11;;;;;;;1.60;1.40;;;;;;;16.23;74.63;98086.91;4145908;28;20753;-52
2023/07/01 00:19:19;;;;;;;1.20;1.10;;;;;;;16.20;74.60;98084.75;4137001;28;20208;-53
2023/07/01 00:21:23;;;;;;;1.60;1.50;;;;;;;16.17;75.07;98090.84;4139999;28;20706;-51
2023/07/01 00:23:27;;;;;;;2.53;1.90;;;;;;;16.14;75.07;98083.16;4141893;28;20201;-53
2023/07/01 00:25:32;;;;;;;1.88;1.63;;;;;;;16.11;75.17;98081.00;4151508;28;20256;-51
2023/07/01 00:27:38;;;;;;;3.17;1.70;;;;;;;16.12;75.36;98076.28;4140453;28;20252;-52
2023/07/01 00:29:43;;;;;;;2.25;1.63;;;;;;;16.12;75.70;98071.59;4170406;28;20239;-52
2023/07/01 00:31:47;;;;;;;1.52;1.42;;;;;;;16.03;76.05;98078.88;4141564;28;20198;-53
2023/07/01 00:33:52;;;;;;;1.80;1.70;;;;;;;15.97;76.14;98080.06;4141927;28;20974;-52
2023/07/01 00:35:56;;;;;;;1.67;1.30;;;;;;;15.94;76.26;98091.72;4155992;28;20371;-52
2023/07/01 00:38:02;;;;;;;1.63;1.50;;;;;;;15.97;76.13;98073.75;4137507;28;20877;-53
2023/07/01 00:40:06;;;;;;;3.15;1.58;;;;;;;15.96;76.39;98072.91;4150438;28;20240;-52
2023/07/01 00:42:13;;;;;;;1.42;1.33;;;;;;;15.88;76.41;98070.81;4152850;28;20749;-52
2023/07/01 00:44:25;;;;;;;1.85;1.65;;;;;;;15.84;76.60;98069.75;4138792;28;20206;-51
2023/07/01 00:46:37;;;;;;;1.60;1.50;;;;;;;15.86;76.47;98064.78;4150048;28;20750;-52
2023/07/01 00:48:41;;;;;;;2.33;1.55;;;;;;;15.80;76.45;98074.22;4137735;28;20213;-52
2023/07/01 00:50:45;;;;;;;2.85;1.40;;;;;;;15.71;76.73;98066.88;4140047;28;20202;-53
2023/07/01 00:52:50;;;;;;;2.10;1.65;;;;;;;15.70;76.76;98068.00;4139275;28;20198;-51
2023/07/01 00:54:58;;;;;;;1.90;1.65;;;;;;;15.70;76.87;98063.28;4170821;28;20204;-53
2023/07/01 00:57:14;;;;;;;1.67;1.38;;;;;;;15.75;77.07;98073.47;4143732;28;20221;-53
2023/07/01 00:59:41;;;;;;;1.85;1.52;;;;;;;15.69;76.75;98069.94;4136880;28;20648;-52
2023/07/01 01:01:48;;;;;;;1.88;1.50;;;;;;;15.67;77.02;98074.09;4149918;28;20220;-52
2023/07/01 01:04:17;;;;;;;2.60;1.30;;;;;;;15.57;77.08;98064.00;4137726;28;21870;-51
2023/07/01 01:06:33;;;;;;;1.73;1.48;;;;;;;15.53;77.32;98068.47;4141369;28;20222;-51
2023/07/01 01:09:10;;;;;;;2.47;1.50;;;;;;;15.47;77.58;98058.59;4169473;28;20202;-51
2023/07/01 01:11:15;;;;;;;2.00;1.55;;;;;;;15.43;77.99;98063.06;4140836;28;20215;-54
2023/07/01 01:13:21;;;;;;;2.90;2.50;;;;;;;15.48;77.99;98063.00;4137281;28;20202;-51
2023/07/01 01:15:26;;;;;;;1.95;1.73;;;;;;;15.47;78.32;98053.09;4138241;28;20206;-53
2023/07/01 01:17:33;;;;;;;1.65;1.55;;;;;;;15.41;78.61;98042.38;4135813;28;20209;-52
2023/07/01 01:20:00;;;;;;;3.10;1.88;;;;;;;15.34;78.84;98045.50;4137681;28;20206;-53
2023/07/01 01:22:31;;;;;;;1.85;1.50;;;;;;;15.30;79.28;98044.41;4136100;28;20210;-52
2023/07/01 01:24:50;;;;;;;1.80;1.70;;;;;;;15.27;79.46;98053.28;4134572;28;20237;-52
2023/07/01 01:26:57;;;;;;;1.67;1.58;;;;;;;15.19;79.42;98044.81;4137413;28;20229;-52
2023/07/01 01:29:06;;;;;;;3.85;1.60;;;;;;;15.23;79.65;98046.69;4152911;28;20709;-52
2023/07/01 01:31:11;;;;;;;2.22;2.03;;;;;;;15.20;79.66;98041.78;4141552;28;20204;-52
2023/07/01 01:33:16;;;;;;;3.28;2.03;;;;;;;15.16;79.70;98043.44;4151042;28;20232;-52
2023/07/01 01:35:20;;;;;;;2.33;1.80;;;;;;;15.17;79.75;98036.03;4137033;28;20235;-51
2023/07/01 01:37:32;;;;;;;2.35;1.50;;;;;;;15.06;80.07;98045.50;4149448;28;20206;-53
2023/07/01 01:39:44;;;;;;;1.83;1.63;;;;;;;15.00;80.51;98036.47;4139015;28;20216;-52
2023/07/01 01:41:58;;;;;;;3.47;2.17;;;;;;;15.01;80.48;98040.84;4135357;28;20237;-53
2023/07/01 01:44:10;;;;;;;2.05;1.42;;;;;;;14.96;80.98;98035.38;4166047;28;20246;-51
2023/07/01 01:46:17;;;;;;;1.50;1.40;;;;;;;14.93;81.18;98035.97;4139360;28;21156;-52
2023/07/01 01:48:21;;;;;;;1.40;1.30;;;;;;;14.95;81.07;98035.66;4122625;28;20206;-52
2023/07/01 01:50:26;;;;;;;1.77;1.50;;;;;;;14.98;81.21;98032.34;4132627;28;20330;-53
2023/07/01 01:52:34;;;;;;;1.92;1.75;;;;;;;14.93;81.15;98035.97;4137611;28;20209;-53
2023/07/01 01:54:39;;;;;;;2.50;1.80;;;;;;;14.91;81.04;98034.63;4165764;28;20292;-52
2023/07/01 01:56:43;;;;;;;1.73;1.58;;;;;;;14.91;81.36;98035.41;4134476;28;20260;-52
2023/07/01 01:58:50;;;;;;;1.95;1.75;;;;;;;14.93;81.57;98033.22;4137137;28;20210;-51
2023/07/01 02:00:55;;;;;;;1.85;1.58;;;;;;;14.96;81.52;98035.38;4136453;28;20210;-52
2023/07/01 02:03:01;;;;;;;2.15;1.85;;;;;;;14.95;81.33;98033.75;4138370;28;20213;-52
2023/07/01 02:05:08;;;;;;;2.78;1.63;;;;;;;14.96;81.20;98029.88;4148961;28;20221;-52
2023/07/01 02:07:17;;;;;;;1.67;1.50;;;;;;;14.87;81.28;98023.34;4149040;28;20707;-53
2023/07/01 02:09:23;;;;;;;1.75;1.60;;;;;;;14.89;81.62;98037.66;4137271;28;20229;-52
2023/07/01 02:11:27;;;;;;;2.55;1.30;;;;;;;14.81;81.49;98031.94;4140240;28;20813;-53
2023/07/01 02:13:32;;;;;;;3.33;1.88;;;;;;;14.74;81.95;98021.25;4135995;28;20202;-53
2023/07/01 02:15:37;;;;;;;2.63;1.90;;;;;;;14.75;82.08;98025.66;4153155;28;20753;-51
2023/07/01 02:17:40;;;;;;;2.55;1.92;;;;;;;14.68;82.52;98019.66;4137825;28;20209;-53
2023/07/01 02:19:45;;;;;;;1.83;1.30;;;;;;;14.65;82.56;98023.00;4152740;28;20630;-51
2023/07/01 02:21:49;;;;;;;2.05;1.50;;;;;;;14.65;82.87;98027.69;4140258;28;20285;-53
2023/07/01 02:23:53;;;;;;;2.25;1.50;;;;;;;14.67;82.80;98025.44;4166349;28;21310;-52
2023/07/01 02:25:58;;;;;;;2.10;1.90;;;;;;;14.60;82.83;98020.28;4133908;28;20268;-51
2023/07/01 02:28:02;;;;;;;2.33;1.88;;;;;;;14.67;83.25;98029.03;4149025;28;20201;-52
2023/07/01 02:30:07;;;;;;;1.65;1.55;;;;;;;14.76;82.99;98019.03;4134080;28;20245;-52
2023/07/01 02:32:11;;;;;;;1.80;1.40;;;;;;;14.78;83.05;98027.84;4134453;28;20692;-52
2023/07/01 02:34:15;;;;;;;2.30;1.88;;;;;;;14.86;83.02;98021.72;4135232;28;20711;-52
2023/07/01 02:36:20;;;;;;;2.38;1.58;;;;;;;14.89;82.93;98029.38;4138547;28;20229;-51
2023/07/01 02:38:23;;;;;;;2.45;1.60;;;;;;;14.86;82.75;98027.22;4134239;28;20625;-52
2023/07/01 02:40:29;;;;;;;1.45;1.20;;;;;;;14.87;82.77;98025.28;4135660;28;20243;-53
2023/07/01 02:42:34;;;;;;;2.08;1.70;;;;;;;14.90;82.72;98020.00;4135505;28;20209;-52
2023/07/01 02:44:39;;;;;;;1.60;1.50;;;;;;;14.92;83.09;98022.47;4150952;28;20208;-53
2023/07/01 02:46:43;;;;;;;1.67;1.55;;;;;;;14.90;83.04;98024.72;4148227;28;20700;-53
2023/07/01 02:48:47;;;;;;;1.85;1.75;;;;;;;14.86;83.30;98018.13;4132434;28;20236;-53
2023/07/01 02:50:52;;;;;;;1.88;1.40;;;;;;;14.86;83.31;98016.19;4135360;28;20211;-52
2023/07/01 02:52:59;;;;;;;2.08;1.88;;;;;;;14.84;83.56;98021.16;4137463;28;20616;-52
2023/07/01 02:55:02;;;;;;;1.73;1.50;;;;;;;14.84;83.71;98015.66;4139613;28;20699;-52
2023/07/01 02:57:08;;;;;;;2.15;1.40;;;;;;;14.88;83.88;98013.13;4136155;28;20235;-53
2023/07/01 02:59:12;;;;;;;1.58;1.45;;;;;;;14.85;83.80;98017.31;4136966;28;20649;-53
2023/07/01 03:01:16;;;;;;;2.33;1.90;;;;;;;14.89;83.92;98012.84;4138290;28;20213;-52
2023/07/01 03:03:22;;;;;;;1.70;1.60;;;;;;;14.91;83.77;98010.63;4133416;28;20293;-52
2023/07/01 03:05:27;;;;;;;2.83;1.75;;;;;;;14.94;83.86;98010.06;4141053;28;20244;-52
2023/07/01 03:07:30;;;;;;;2.63;2.15;;;;;;;14.93;83.93;98008.41;4124114;28;20578;-52
2023/07/01 03:09:34;;;;;;;2.10;1.65;;;;;;;14.93;83.87;98013.09;4137638;28;20198;-54
2023/07/01 03:11:43;;;;;;;2.15;1.95;;;;;;;14.92;83.74;98011.47;4155001;28;20197;-52
2023/07/01 03:13:48;;;;;;;1.88;1.77;;;;;;;14.94;83.64;98017.50;4138901;28;20594;-52
2023/07/01 03:15:53;;;;;;;1.85;1.75;;;;;;;14.96;83.63;98010.56;4134497;28;20283;-51
2023/07/01 03:17:57;;;;;;;1.67;1.58;;;;;;;15.02;83.70;98003.91;4134811;28;20626;-51
2023/07/01 03:20:04;;;;;;;1.95;1.80;;;;;;;15.03;83.45;98002.78;4135270;28;20205;-52
2023/07/01 03:22:09;;;;;;;2.83;1.88;;;;;;;15.04;83.57;98004.44;4133073;28;20203;-53
2023/07/01 03:24:14;;;;;;;2.92;1.83;;;;;;;15.07;83.55;98006.63;4150222;28;20223;-53
2023/07/01 03:26:18;;;;;;;1.52;1.42;;;;;;;15.08;83.73;98004.66;4137712;28;20702;-52
2023/07/01 03:28:23;;;;;;;1.75;1.65;;;;;;;15.08;83.79;98005.50;4137651;28;20209;-52
2023/07/01 03:30:31;;;;;;;1.67;1.50;;;;;;;15.10;83.91;98007.97;4133154;28;20198;-52
2023/07/01 03:32:36;;;;;;;1.67;1.50;;;;;;;15.08;83.80;98011.03;4134193;28;20711;-53
2023/07/01 03:34:42;;;;;;;1.90;1.70;;;;;;;15.12;83.88;98012.09;4147072;28;20259;-53
2023/07/01 03:36:46;;;;;;;1.80;1.60;;;;;;;15.14;83.99;98007.09;4139531;28;20248;-52
2023/07/01 03:38:49;;;;;;;2.50;1.80;;;;;;;15.17;83.75;98013.97;4134034;28;20197;-53
2023/07/01 03:40:54;;;;;;;2.10;1.60;;;;;;;15.15;83.66;98005.97;4134474;28;20246;-51
2023/07/01 03:42:58;;;;;;;1.58;1.48;;;;;;;15.16;83.95;98002.09;4135572;28;20253;-53
2023/07/01 03:45:04;;;;;;;1.85;1.55;;;;;;;15.19;84.07;98007.06;4134945;28;20240;-53
2023/07/01 03:47:08;;;;;;;1.40;1.30;;;;;;;15.14;84.18;97998.84;4138168;28;20217;-52
2023/07/01 03:49:18;;;;;;;2.35;1.52;;;;;;;15.18;84.06;98010.94;4132166;28;20205;-50
2023/07/01 03:51:22;;;;;;;1.80;1.70;;;;;;;15.15;84.30;98005.97;4136773;28;20208;-52
2023/07/01 03:53:26;;;;;;;2.17;1.67;;;;;;;15.18;84.25;98010.94;4135278;28;20206;-53
2023/07/01 03:55:28;;;;;;;2.00;1.67;;;;;;;15.19;84.26;98011.72;4147252;28;20299;-52
2023/07/01 03:57:30;;;;;;;1.85;1.55;;;;;;;15.18;84.36;98010.94;4133852;28;20706;-52
2023/07/01 03:59:31;;;;;;;1.77;1.65;;;;;;;15.21;84.28;98003.97;4164425;28;20231;-52
2023/07/01 04:01:36;;;;;;;1.38;1.27;;;;;;;15.20;83.95;98003.19;4147881;28;20296;-51
2023/07/01 04:03:38;;;;;;;2.65;1.98;;;;;;;15.19;84.19;97996.03;4163415;28;20216;-51
2023/07/01 04:05:39;;;;;;;4.03;1.88;;;;;;;15.19;84.38;98001.53;4147531;28;21137;-51
2023/07/01 04:07:43;;;;;;;2.45;2.20;;;;;;;15.18;84.65;97999.06;4135439;28;20248;-52
2023/07/01 04:09:45;;;;;;;2.20;1.58;;;;;;;15.20;84.60;97994.91;4137023;28;20217;-51
2023/07/01 04:11:47;;;;;;;2.03;1.52;;;;;;;15.22;84.75;98000.94;4141440;28;20713;-51
2023/07/01 04:13:49;;;;;;;2.00;1.80;;;;;;;15.19;84.88;97997.94;4130292;28;20588;-51
2023/07/01 04:15:51;;;;;;;2.13;1.92;;;;;;;15.19;84.97;98001.53;4132879;28;20731;-52
2023/07/01 04:17:54;;;;;;;2.88;1.60;;;;;;;15.32;85.04;97989.84;4149191;28;20205;-51
2023/07/01 04:19:56;;;;;;;3.63;1.90;;;;;;;15.02;82.88;97984.63;4146863;28;20248;-53
2023/07/01 04:21:58;;;;;;;2.05;1.42;;;;;;;14.91;83.20;97983.06;4118114;28;20766;-51
2023/07/01 04:24:02;;;;;;;1.73;1.50;;;;;;;14.80;83.09;97976.03;4164598;28;20208;-51
2023/07/01 04:26:05;;;;;;;3.97;1.77;;;;;;;14.74;83.18;97977.19;4133283;28;20225;-52
2023/07/01 04:28:08;;;;;;;1.80;1.40;;;;;;;14.71;83.32;97977.75;4135771;28;20767;-51
2023/07/01 04:30:11;;;;;;;2.88;1.60;;;;;;;14.81;82.93;97971.34;4114564;28;20209;-52
2023/07/01 04:32:14;;;;;;;2.15;1.95;;;;;;;14.88;82.53;97980.91;4135789;28;20213;-51
2023/07/01 04:34:15;;;;;;;2.55;1.60;;;;;;;14.95;82.54;97973.13;4123742;28;20256;-51
2023/07/01 04:36:17;;;;;;;2.80;1.55;;;;;;;15.03;82.13;97980.75;4138324;28;20236;-51
2023/07/01 04:38:19;;;;;;;5.55;1.67;;;;;;;14.98;81.86;97977.22;4146718;28;20643;-51
2023/07/01 04:40:21;;;;;;;3.90;1.50;;;;;;;15.02;81.57;97979.09;4131842;28;20260;-52
2023/07/01 04:42:23;;;;;;;2.15;1.35;;;;;;;15.05;81.83;97978.53;4131851;28;20216;-51
2023/07/01 04:44:25;;;;;;;2.38;1.52;;;;;;;15.18;81.21;97983.38;4134857;28;20209;-51
2023/07/01 04:46:26;;;;;;;2.30;2.05;;;;;;;15.19;81.17;97979.50;4139904;28;20228;-52
2023/07/01 04:48:28;;;;;;;2.97;1.65;;;;;;;15.17;80.95;97969.88;4138526;28;20213;-52
2023/07/01 04:50:31;;;;;;;2.13;1.75;;;;;;;15.26;80.97;97977.19;4140201;28;20205;-51
2023/07/01 04:52:32;;;;;;;3.47;1.80;;;;;;;15.39;80.35;97971.00;4148818;28;20221;-52
2023/07/01 04:54:34;;;;;;;2.42;1.52;;;;;;;15.39;80.45;97973.78;4133982;28;20210;-52
2023/07/01 04:56:36;;;;;;;2.33;1.48;;;;;;;15.44;80.67;97976.44;4150897;28;20225;-51
2023/07/01 04:58:38;;;;;;;2.00;1.38;;;;;;;15.54;80.29;97973.56;4136526;28;20206;-51
2023/07/01 05:00:39;;;;;;;3.03;1.70;;;;;;;15.52;79.98;97972.22;4150149;28;20216;-51
2023/07/01 05:02:41;;;;;;;3.35;2.42;;;;;;;15.48;80.51;97977.50;4167621;28;20211;-52
2023/07/01 05:04:44;;;;;;;2.95;1.95;;;;;;;15.59;79.60;97967.16;4140431;28;20209;-51
2023/07/01 05:06:46;;;;;;;2.75;1.80;;;;;;;15.58;79.82;97973.81;4136147;28;20246;-51
2023/07/01 05:08:48;;;;;;;3.83;1.77;;;;;;;15.59;79.66;97973.53;4167264;28;20741;-52
2023/07/01 05:10:49;;;;;;;2.35;1.35;;;;;;;15.59;79.58;97970.75;4155436;28;20215;-51
2023/07/01 05:12:52;;;;;;;2.08;1.92;;;;;;;15.59;79.87;97959.72;4140129;28;20705;-51
2023/07/01 05:14:55;;;;;;;3.72;1.50;;;;;;;15.60;79.90;97958.63;4137878;28;20206;-52
2023/07/01 05:16:56;;;;;;;2.25;1.63;;;;;;;15.58;80.36;97966.38;4134178;28;20230;-52
2023/07/01 05:18:58;;;;;;;6.13;1.70;;;;;;;15.62;80.34;97959.13;4135261;28;20248;-52
2023/07/01 05:21:00;;;;;;;3.20;1.83;;;;;;;15.68;80.20;97971.75;4136147;28;20216;-51
2023/07/01 05:23:02;;;;;;;4.47;1.88;;;;;;;15.68;80.13;97965.38;4132487;28;21270;-51
2023/07/01 05:25:04;;;;;;;6.80;1.88;;;;;;;15.64;80.29;97965.16;4136426;28;20264;-52
2023/07/01 05:27:06;;;;;;;3.13;2.13;;;;;;;15.72;80.25;97966.44;4148248;28;20267;-52
2023/07/01 05:29:07;;;;;;;4.18;1.77;;;;;;;15.83;80.13;97968.78;4140402;28;20213;-52
2023/07/01 05:31:09;;;;;;;5.35;2.00;;;;;;;15.78;80.10;97971.63;4134048;28;20622;-53
2023/07/01 05:33:11;;;;;;;2.75;1.60;;;;;;;15.94;79.67;97975.78;4135995;28;20611;-52
2023/07/01 05:35:13;;;;;;;2.72;2.00;;;;;;;15.94;79.72;97975.78;4150808;28;20220;-51
2023/07/01 05:37:15;;;;;;;3.85;1.83;;;;;;;16.06;79.35;97969.81;4164788;28;20227;-51
2023/07/01 05:39:17;;;;;;;2.08;1.73;;;;;;;16.09;79.11;97975.56;4165310;28;22459;-52
2023/07/01 05:41:19;;;;;;;1.85;1.45;;;;;;;16.18;79.68;97979.31;4133611;28;20217;-51
2023/07/01 05:43:21;;;;;;;2.28;1.58;;;;;;;16.28;78.76;97970.88;4148388;28;20221;-52
2023/07/01 05:45:23;;;;;;;2.42;1.55;;;;;;;16.32;78.74;97971.09;4138745;28;20213;-52
2023/07/01 05:47:25;;;;;;;2.38;1.88;;;;;;;16.44;78.24;97975.03;4138430;28;20230;-52
2023/07/01 05:49:26;;;;;;;2.15;1.60;;;;;;;16.40;78.30;97968.50;4149186;28;20865;-52
2023/07/01 05:51:28;;;;;;;2.75;2.08;;;;;;;16.49;77.67;97974.97;4147674;28;20205;-51
2023/07/01 05:53:31;;;;;;;3.45;1.75;;;;;;;16.70;77.54;97970.75;4133692;28;20301;-52
2023/07/01 05:55:33;;;;;;;2.40;2.00;;;;;;;16.94;77.09;97976.97;4146601;28;20602;-52
2023/07/01 05:57:35;;;;;;;5.18;2.47;;;;;;;16.93;75.96;97978.09;4135099;28;20206;-51
2023/07/01 05:59:37;;;;;;;3.95;2.22;;;;;;;16.81;76.44;97972.22;4168282;28;20209;-51
2023/07/01 06:01:39;;;;;;;3.10;1.88;;;;;;;17.05;76.30;97973.69;4150489;28;20205;-51
2023/07/01 06:03:40;;;;;;;2.42;1.50;;;;;;;17.15;75.98;97978.22;4139768;28;20209;-50
2023/07/01 06:05:42;;;;;;;2.72;2.08;;;;;;;17.25;75.14;97975.28;4152832;28;20237;-52
2023/07/01 06:07:44;;;;;;;4.57;1.98;;;;;;;17.25;74.96;97975.28;4137643;28;20225;-51
2023/07/01 06:09:47;;;;;;;2.95;1.80;;;;;;;17.36;75.42;97976.69;4138735;28;20217;-51
2023/07/01 06:11:49;;;;;;;3.75;2.08;;;;;;;17.54;74.74;97975.81;4133955;28;20221;-51
2023/07/01 06:13:51;;;;;;;4.22;1.75;;;;;;;17.56;75.36;97973.56;4162923;28;20208;-51
2023/07/01 06:15:52;;;;;;;13.07;1.85;;;;;;;17.59;74.69;97965.47;4132616;28;20234;-52
2023/07/01 06:17:55;;;;;;;2.95;1.60;;;;;;;17.56;74.89;97959.72;4134609;28;20247;-53
2023/07/01 06:19:57;;;;;;;2.45;1.45;;;;;;;17.59;74.29;97964.66;4135415;28;20736;-51
2023/07/01 06:21:59;;;;;;;1.95;1.58;;;;;;;17.85;73.81;97963.00;4132053;28;20217;-51
2023/07/01 06:24:01;;;;;;;2.35;1.58;;;;;;;18.08;73.16;97956.38;4132649;28;20712;-51
2023/07/01 06:26:03;;;;;;;3.67;1.60;;;;;;;18.18;72.42;97939.53;4136763;28;20268;-52
2023/07/01 06:28:05;;;;;;;1.50;1.40;;;;;;;18.63;71.40;97952.28;4135686;28;20213;-52
2023/07/01 06:30:07;;;;;;;2.90;1.60;;;;;;;18.81;70.30;97954.03;4132496;28;20250;-52
2023/07/01 06:32:09;;;;;;;3.08;1.65;;;;;;;18.80;69.31;97950.47;4133215;28;20237;-50
2023/07/01 06:34:13;;;;;;;4.78;1.27;;;;;;;18.75;69.64;97946.97;4135184;28;20309;-51
2023/07/01 06:36:18;;;;;;;3.90;1.65;;;;;;;18.73;69.67;97946.50;4158140;28;20232;-51
2023/07/01 06:38:20;;;;;;;1.95;1.60;;;;;;;18.50;69.54;97954.00;4150186;28;20753;-51
2023/07/01 06:40:21;;;;;;;3.00;1.45;;;;;;;18.46;70.16;97949.41;4136127;28;20212;-52
2023/07/01 06:42:23;;;;;;;1.83;1.33;;;;;;;18.50;70.41;97950.38;4166450;28;20231;-52
2023/07/01 06:44:25;;;;;;;4.38;1.40;;;;;;;19.11;71.37;97953.25;4134082;28;20210;-51
2023/07/01 06:46:27;;;;;;;3.15;1.23;;;;;;;19.10;68.82;97952.41;4141790;28;20237;-52
2023/07/01 06:48:29;;;;;;;3.38;1.73;;;;;;;18.68;68.94;97944.66;4163670;28;20693;-51
2023/07/01 06:50:31;;;;;;;2.03;1.30;;;;;;;18.74;68.85;97943.41;4132659;28;20623;-52
2023/07/01 06:52:33;;;;;;;4.60;1.30;;;;;;;18.45;69.80;97939.44;4135285;28;20584;-51
2023/07/01 06:54:34;;;;;;;4.30;1.35;;;;;;;18.71;70.19;97937.69;4131038;28;20209;-52
2023/07/01 06:56:36;;;;;;;3.97;1.65;;;;;;;18.37;70.23;97948.50;4136135;28;20229;-53
2023/07/01 06:58:40;;;;;;;2.05;1.23;;;;;;;18.12;71.07;97940.78;4136432;28;20210;-51
2023/07/01 07:00:43;;;;;;;15.20;1.73;;;;;;;18.04;71.74;97944.28;4148783;28;20213;-52
2023/07/01 07:02:45;;;;;;;2.72;1.35;;;;;;;17.83;72.84;97943.91;4134336;28;20216;-52
2023/07/01 07:04:47;;;;;;;3.85;1.50;;;;;;;18.32;72.26;97937.56;4136373;28;20220;-51
2023/07/01 07:06:49;;;;;;;3.42;1.55;;;;;;;18.69;71.26;97937.16;4134779;28;20265;-51
2023/07/01 07:08:51;;;;;;;1.40;1.20;;;;;;;18.35;71.38;97942.44;4138731;28;20296;-51
2023/07/01 07:10:52;;;;;;;2.22;1.35;;;;;;;18.51;71.10;97933.44;4153476;28;20622;-51
2023/07/01 07:12:54;;;;;;;1.70;1.40;;;;;;;18.68;70.72;97932.75;4133100;28;20209;-51
2023/07/01 07:14:56;;;;;;;2.65;1.50;;;;;;;18.95;69.67;97938.97;4147207;28;20216;-52
2023/07/01 07:16:58;;;;;;;11.18;1.20;;;;;;;18.72;69.63;97939.31;4135626;28;20235;-51
2023/07/01 07:18:59;;;;;;;5.30;1.40;;;;;;;18.71;70.95;97932.13;4131122;28;20581;-51
2023/07/01 07:21:01;;;;;;;1.75;1.48;;;;;;;18.80;70.51;97928.28;4145405;28;20213;-52
2023/07/01 07:23:05;;;;;;;2.78;1.33;;;;;;;18.88;70.19;97943.31;4131405;28;20213;-51
2023/07/01 07:25:16;;;;;;;2.28;1.23;;;;;;;19.03;70.04;97917.94;4132534;28;20682;-51
2023/07/01 07:27:18;;;;;;;2.53;1.40;;;;;;;19.15;69.76;97937.59;4161159;28;20275;-52
2023/07/01 07:29:20;;;;;;;2.25;1.70;;;;;;;19.29;69.76;97930.00;4130776;28;20739;-52
2023/07/01 07:31:22;;;;;;;1.52;1.42;;;;;;;19.21;69.14;97941.91;4134952;28;20217;-51
2023/07/01 07:33:24;;;;;;;4.82;1.35;;;;;;;19.53;68.48;97927.66;4150988;28;20208;-52
2023/07/01 07:35:26;;;;;;;2.67;1.40;;;;;;;19.39;68.18;97926.97;4148498;28;20239;-52
2023/07/01 07:37:28;;;;;;;3.28;1.48;;;;;;;19.41;68.57;97919.94;4147973;28;20753;-51
2023/07/01 07:39:30;;;;;;;3.08;1.17;;;;;;;19.12;69.42;97924.38;4148295;28;21995;-52
2023/07/01 07:41:32;;;;;;;2.95;1.10;;;;;;;18.93;70.25;97923.78;4137104;28;20570;-52
2023/07/01 07:43:34;;;;;;;7.35;1.60;;;;;;;18.73;71.32;97924.31;4139464;28;20683;-51
2023/07/01 07:45:36;;;;;;;9.13;1.23;;;;;;;18.77;71.83;97923.34;4164038;28;20204;-51
2023/07/01 07:47:38;;;;;;;2.95;1.23;;;;;;;18.80;72.01;97924.69;4132045;28;20761;-52
2023/07/01 07:49:40;;;;;;;1.88;1.10;;;;;;;18.89;72.42;97925.53;4132280;28;20209;-51
2023/07/01 07:51:42;;;;;;;1.20;1.00;;;;;;;18.76;72.05;97918.94;4149339;28;20261;-51
2023/07/01 07:53:44;;;;;;;3.17;1.27;;;;;;;18.38;73.42;97914.94;4146942;28;20244;-51
2023/07/01 07:55:45;;;;;;;2.78;1.33;;;;;;;18.51;73.81;97913.25;4128054;28;20626;-51
2023/07/01 07:57:48;;;;;;;1.27;1.10;;;;;;;18.76;73.64;97909.81;4132983;28;20211;-51
2023/07/01 07:59:52;;;;;;;1.20;1.10;;;;;;;18.64;74.21;97915.94;4145679;28;21018;-51
2023/07/01 08:01:56;;;;;;;3.58;1.33;;;;;;;18.70;73.56;97913.84;4149004;28;20935;-52
2023/07/01 08:03:59;;;;;;;1.40;1.25;;;;;;;18.83;73.69;97918.50;4135648;28;20210;-51
2023/07/01 08:06:01;;;;;;;2.35;1.35;;;;;;;18.86;73.26;97917.88;4132412;28;20245;-52
2023/07/01 08:08:03;;;;;;;0.90;0.90;;;;;;;18.90;72.58;97904.97;4129820;28;20229;-51
2023/07/01 08:10:05;;;;;;;1.88;1.00;;;;;;;18.75;73.93;97911.78;4131565;28;20275;-51
2023/07/01 08:12:08;;;;;;;1.90;1.17;;;;;;;18.65;74.20;97911.22;4161775;28;20209;-51
2023/07/01 08:14:09;;;;;;;2.00;1.25;;;;;;;18.77;74.69;97903.16;4130515;28;20221;-52
2023/07/01 08:16:14;;;;;;;2.05;1.10;;;;;;;18.75;74.17;97905.41;4145448;28;20303;-52
2023/07/01 08:18:16;;;;;;;1.30;1.15;;;;;;;18.77;75.00;97908.69;4148910;28;20314;-51
2023/07/01 08:20:18;;;;;;;1.75;1.00;;;;;;;18.60;75.57;97908.56;4167705;28;20647;-51
2023/07/01 08:22:20;;;;;;;2.78;1.60;;;;;;;18.64;76.16;97904.06;4139415;28;20220;-51
2023/07/01 08:24:22;;;;;;;3.70;1.35;;;;;;;18.60;76.10;97903.03;4133776;28;20301;-51
2023/07/01 08:26:23;;;;;;;1.40;1.15;;;;;;;18.67;76.51;97897.84;4147695;28;20229;-51
2023/07/01 08:28:31;;;;;;;2.45;1.20;;;;;;;18.52;77.20;97906.56;4133720;28;20233;-52
2023/07/01 08:30:33;;;;;;;1.95;1.23;;;;;;;18.64;76.55;97913.16;4149862;28;20205;-51
2023/07/01 08:32:35;;;;;;;2.50;1.20;;;;;;;18.71;76.28;97905.22;4129917;28;20659;-52
2023/07/01 08:34:37;;;;;;;2.35;1.17;;;;;;;18.88;76.58;97899.78;4141586;28;20271;-52
2023/07/01 08:36:39;;;;;;;2.40;1.27;;;;;;;18.96;75.56;97906.50;4137103;28;20739;-52
2023/07/01 08:38:41;;;;;;;3.40;1.20;;;;;;;19.00;75.12;97900.00;4124562;28;20302;-51
2023/07/01 08:40:43;;;;;;;1.33;1.20;;;;;;;18.85;75.54;97900.41;4134672;28;20349;-51
2023/07/01 08:42:51;;;;;;;2.28;1.40;;;;;;;18.96;75.04;97907.31;4135779;28;20206;-51
2023/07/01 08:44:53;;;;;;;2.67;1.85;;;;;;;18.77;74.94;97897.59;4138365;28;20228;-51
2023/07/01 08:46:58;;;;;;;1.42;1.17;;;;;;;18.74;75.00;97909.31;4146424;28;20699;-51
2023/07/01 08:49:02;;;;;;;3.25;1.65;;;;;;;18.53;76.45;97903.47;4150961;28;20296;-51
2023/07/01 08:51:12;;;;;;;4.65;1.60;;;;;;;18.54;76.51;97893.22;4140903;28;20349;-51
2023/07/01 08:53:15;;;;;;;3.67;1.20;;;;;;;18.62;76.63;97895.22;4143542;28;20764;-52
2023/07/01 08:55:17;;;;;;;3.63;1.00;;;;;;;18.49;77.19;97896.09;4154618;28;20283;-51
2023/07/01 08:57:23;;;;;;;2.85;1.60;;;;;;;18.48;77.84;97894.47;4127566;28;20214;-52
2023/07/01 08:59:26;;;;;;;2.67;1.10;;;;;;;18.65;78.27;97886.28;4136046;28;20204;-51
2023/07/01 09:01:30;;;;;;;2.20;1.10;;;;;;;18.48;77.98;97888.94;4152319;28;20251;-52
2023/07/01 09:03:35;;;;;;;1.95;1.50;;;;;;;18.52;78.08;97889.94;4143882;28;20206;-51
2023/07/01 09:05:37;;;;;;;3.33;1.23;;;;;;;18.55;77.81;97883.75;4135950;28;20347;-51
2023/07/01 09:07:40;;;;;;;1.67;1.20;;;;;;;18.67;78.22;97892.31;4135585;28;20239;-51
2023/07/01 09:09:44;;;;;;;1.27;1.00;;;;;;;18.46;78.45;97877.34;4153258;28;20252;-51
2023/07/01 09:11:47;;;;;;;1.35;1.10;;;;;;;18.38;78.83;97883.66;4136966;28;20206;-51
2023/07/01 09:13:54;;;;;;;1.15;1.05;;;;;;;18.51;79.23;97882.78;4141466;28;20731;-52
2023/07/01 09:15:56;;;;;;;3.80;1.20;;;;;;;18.51;79.04;97875.25;4152102;28;20233;-52
2023/07/01 09:17:58;;;;;;;2.17;1.20;;;;;;;18.69;78.85;97874.22;4152800;28;20638;-51
2023/07/01 09:20:12;;;;;;;1.60;1.25;;;;;;;18.54;78.88;97876.59;4137137;28;20213;-51
2023/07/01 09:22:14;;;;;;;1.55;0.95;;;;;;;18.52;79.18;97870.53;4153235;28;20204;-51
2023/07/01 09:24:15;;;;;;;1.08;0.88;;;;;;;18.52;79.56;97878.84;4142627;28;20573;-52
2023/07/01 09:26:21;;;;;;;2.35;1.40;;;;;;;18.68;79.91;97877.31;4137888;28;20699;-52
2023/07/01 09:28:31;;;;;;;1.33;1.23;;;;;;;18.70;80.18;97878.63;4122426;28;20603;-52
2023/07/01 09:30:33;;;;;;;1.92;1.13;;;;;;;18.80;80.46;97877.56;4147771;28;20645;-53
2023/07/01 09:32:35;;;;;;;2.72;1.30;;;;;;;18.63;80.90;97874.66;4135885;28;20258;-52
2023/07/01 09:34:57;;;;;;;0.93;0.90;;;;;;;18.40;82.59;97873.06;4134167;28;20894;-51
2023/07/01 09:37:15;;;;;;;2.35;1.33;;;;;;;18.44;84.19;97872.13;4141156;28;20470;-52
2023/07/01 09:39:33;;;;;;;4.78;0.93;;;;;;;18.18;83.21;97873.06;4140638;28;20310;-52
2023/07/01 09:41:35;;;;;;;3.83;1.38;;;;;;;18.22;83.54;97879.59;4133425;28;20869;-51
2023/07/01 09:43:37;;;;;;;1.55;1.10;;;;;;;18.28;83.60;97867.25;4134635;28;20585;-52
2023/07/01 09:45:55;;;;;;;7.00;1.58;;;;;;;18.33;83.04;97872.69;4152252;28;20316;-51